Time;durP1;ratioP1;P1;durP2;ratioP2;P2;SDS_P1;SDS_P2;PMS_P1;PMS_P2;Temp;Humidity;BMP_temperature;BMP_pressure;BME280_temperature;BME280_humidity;BME280_pressure;Samples;Min_cycle;Max_cycle;Signal;HPM_P1;HPM_P2
2021/09/11 00:01:38;;;;;;;9.82;6.95;;;19.60;52.10;;;;;;4846458;29;20036;-61
2021/09/11 00:04:03;;;;;;;9.38;6.65;;;19.60;52.20;;;;;;4861042;29;20037;-62
2021/09/11 00:06:30;;;;;;;9.88;7.32;;;19.60;52.30;;;;;;4861081;29;20068;-62
2021/09/11 00:08:55;;;;;;;10.07;6.95;;;19.60;52.40;;;;;;4861081;29;20504;-62
2021/09/11 00:11:21;;;;;;;9.75;6.90;;;19.60;52.50;;;;;;4860993;29;20034;-62
2021/09/11 00:13:47;;;;;;;10.07;6.82;;;19.50;52.60;;;;;;4861212;29;20034;-62
2021/09/11 00:16:12;;;;;;;9.27;6.95;;;19.50;52.70;;;;;;4861258;29;20385;-62
2021/09/11 00:18:38;;;;;;;9.30;6.63;;;19.50;52.90;;;;;;4861835;29;20389;-62
2021/09/11 00:21:04;;;;;;;11.75;7.18;;;19.40;52.90;;;;;;4861951;29;20026;-63
2021/09/11 00:23:29;;;;;;;10.68;7.65;;;19.40;53.10;;;;;;4862003;29;20446;-63
2021/09/11 00:25:59;;;;;;;10.30;7.28;;;19.30;53.20;;;;;;4861978;29;20154;-62
2021/09/11 00:28:25;;;;;;;10.45;7.35;;;19.30;53.40;;;;;;4845084;29;20061;-61
2021/09/11 00:30:51;;;;;;;10.85;7.47;;;19.20;53.40;;;;;;4861778;29;20117;-61
2021/09/11 00:33:17;;;;;;;10.55;7.30;;;19.20;53.60;;;;;;4861609;29;20070;-62
2021/09/11 00:35:42;;;;;;;10.27;7.32;;;19.10;53.70;;;;;;4861582;29;20118;-62
2021/09/11 00:38:08;;;;;;;10.02;7.32;;;19.10;53.90;;;;;;4861591;29;20021;-62
2021/09/11 00:40:33;;;;;;;9.93;7.45;;;19.10;54.00;;;;;;4861674;29;20385;-62
2021/09/11 00:42:59;;;;;;;11.35;7.85;;;19.00;54.10;;;;;;4861809;29;20697;-63
2021/09/11 00:45:25;;;;;;;10.95;7.85;;;19.00;54.30;;;;;;4861558;29;20033;-62
2021/09/11 00:47:51;;;;;;;11.75;7.80;;;19.00;54.50;;;;;;4858947;29;20037;-62
2021/09/11 00:50:18;;;;;;;11.18;8.13;;;19.00;54.50;;;;;;4861443;29;20036;-62
2021/09/11 00:52:45;;;;;;;11.88;7.82;;;18.90;54.50;;;;;;4861318;29;20108;-62
2021/09/11 00:55:13;;;;;;;10.93;7.40;;;18.90;54.60;;;;;;4861341;29;20504;-62
2021/09/11 00:57:42;;;;;;;9.90;7.13;;;18.90;54.70;;;;;;4861322;29;20021;-62
2021/09/11 01:00:08;;;;;;;10.90;7.70;;;18.90;54.80;;;;;;4861447;29;20752;-61
2021/09/11 01:02:34;;;;;;;11.18;8.35;;;18.90;54.90;;;;;;4861430;29;20549;-61
2021/09/11 01:05:00;;;;;;;10.90;7.85;;;18.80;55.00;;;;;;4862725;29;20065;-62
2021/09/11 01:07:26;;;;;;;11.50;8.18;;;18.80;55.00;;;;;;4861300;29;20363;-63
2021/09/11 01:09:53;;;;;;;12.48;8.50;;;18.80;55.10;;;;;;4860133;29;20487;-62
2021/09/11 01:12:19;;;;;;;12.27;8.18;;;18.70;55.10;;;;;;4861092;29;20434;-62
2021/09/11 01:14:45;;;;;;;11.60;8.57;;;18.70;55.30;;;;;;4860965;29;20029;-63
2021/09/11 01:17:15;;;;;;;11.48;7.90;;;18.70;55.40;;;;;;4860925;29;20495;-62
2021/09/11 01:19:41;;;;;;;10.98;7.88;;;18.70;55.50;;;;;;4860933;29;20030;-62
2021/09/11 01:22:20;;;;;;;11.32;7.95;;;18.60;55.40;;;;;;4860885;29;20425;-63
2021/09/11 01:24:54;;;;;;;11.32;8.10;;;18.60;55.70;;;;;;4862235;29;20022;-62
2021/09/11 01:27:20;;;;;;;11.07;8.40;;;18.60;55.70;;;;;;4860740;29;20053;-63
2021/09/11 01:30:01;;;;;;;12.00;9.00;;;18.60;55.80;;;;;;4860816;29;20026;-61
2021/09/11 01:32:28;;;;;;;11.43;8.27;;;18.50;56.20;;;;;;4860554;29;20034;-61
2021/09/11 01:34:54;;;;;;;12.43;8.52;;;18.50;55.90;;;;;;4860621;29;20030;-61
2021/09/11 01:37:21;;;;;;;12.45;8.77;;;18.50;56.10;;;;;;4860584;29;20025;-62
2021/09/11 01:39:47;;;;;;;14.38;8.30;;;18.40;56.30;;;;;;4861236;29;20482;-62
2021/09/11 01:42:17;;;;;;;11.52;8.20;;;18.50;56.20;;;;;;4861095;29;20061;-62
2021/09/11 01:44:48;;;;;;;12.07;8.45;;;18.40;56.20;;;;;;4860599;29;20078;-62
2021/09/11 01:47:14;;;;;;;11.05;7.93;;;18.40;56.30;;;;;;4860519;29;20033;-62
2021/09/11 01:49:41;;;;;;;12.50;8.32;;;18.40;56.30;;;;;;4860532;29;20485;-62
2021/09/11 01:52:07;;;;;;;11.77;8.40;;;18.40;56.40;;;;;;4860361;29;20055;-61
2021/09/11 01:54:33;;;;;;;11.65;8.20;;;18.40;56.40;;;;;;4860394;29;20024;-62
2021/09/11 01:56:59;;;;;;;11.73;8.35;;;18.40;56.40;;;;;;4845907;29;20033;-61
2021/09/11 01:59:25;;;;;;;11.57;8.02;;;18.30;56.50;;;;;;4860245;29;20029;-61
2021/09/11 02:01:51;;;;;;;12.23;8.88;;;18.40;56.50;;;;;;4859659;29;20100;-62
2021/09/11 02:04:16;;;;;;;11.70;8.48;;;18.30;56.60;;;;;;4873750;29;20089;-63
2021/09/11 02:06:42;;;;;;;11.50;8.20;;;18.30;56.60;;;;;;4877410;29;20041;-62
2021/09/11 02:09:08;;;;;;;11.88;8.40;;;18.30;56.60;;;;;;4868229;29;20056;-63
2021/09/11 02:11:33;;;;;;;11.95;8.82;;;18.30;56.70;;;;;;4846683;29;20032;-62
2021/09/11 02:13:59;;;;;;;12.20;8.77;;;18.30;56.70;;;;;;4860389;29;20736;-61
2021/09/11 02:16:25;;;;;;;12.10;8.88;;;18.20;56.80;;;;;;4860061;29;20033;-61
2021/09/11 02:18:50;;;;;;;12.13;8.70;;;18.20;56.90;;;;;;4859813;29;20077;-62
2021/09/11 02:21:16;;;;;;;12.68;8.60;;;18.20;56.90;;;;;;4859635;29;20230;-62
2021/09/11 02:23:42;;;;;;;13.25;8.98;;;18.20;57.10;;;;;;4860412;29;20029;-62
2021/09/11 02:26:07;;;;;;;13.82;9.23;;;18.20;57.10;;;;;;4878367;29;20036;-62
2021/09/11 02:28:33;;;;;;;12.25;9.13;;;18.10;57.30;;;;;;4878168;29;20059;-62
2021/09/11 02:30:59;;;;;;;10.63;8.00;;;18.10;57.30;;;;;;4878185;29;20032;-62
2021/09/11 02:33:24;;;;;;;13.07;9.18;;;18.10;57.40;;;;;;4878280;29;20037;-62
2021/09/11 02:35:50;;;;;;;13.02;8.90;;;18.10;57.40;;;;;;4878112;29;20136;-62
2021/09/11 02:38:16;;;;;;;12.50;9.27;;;18.10;57.50;;;;;;4878331;29;20037;-63
2021/09/11 02:40:41;;;;;;;13.63;9.45;;;18.10;57.60;;;;;;4861578;29;20081;-63
2021/09/11 02:43:07;;;;;;;12.48;9.68;;;18.10;57.60;;;;;;4861467;29;20101;-61
2021/09/11 02:45:33;;;;;;;12.52;9.30;;;18.10;57.60;;;;;;4878156;29;20371;-61
2021/09/11 02:47:58;;;;;;;11.93;9.00;;;18.00;57.60;;;;;;4878067;29;20484;-61
2021/09/11 02:50:24;;;;;;;13.60;9.45;;;18.00;57.70;;;;;;4878300;29;20029;-61
2021/09/11 02:52:50;;;;;;;11.88;8.88;;;17.90;57.80;;;;;;4878284;29;20056;-61
2021/09/11 02:55:15;;;;;;;12.90;9.23;;;17.90;57.80;;;;;;4877973;29;20072;-62
2021/09/11 02:57:41;;;;;;;12.30;8.95;;;17.80;57.80;;;;;;4840996;29;20050;-63
2021/09/11 03:00:07;;;;;;;13.65;9.32;;;17.80;58.00;;;;;;4840930;29;20429;-63
2021/09/11 03:02:33;;;;;;;13.48;9.30;;;17.80;58.00;;;;;;4840857;29;20060;-63
2021/09/11 03:04:58;;;;;;;12.65;9.40;;;17.80;58.00;;;;;;4840907;29;20065;-61
2021/09/11 03:07:24;;;;;;;13.15;9.52;;;17.80;58.10;;;;;;4824663;29;20034;-62
2021/09/11 03:09:50;;;;;;;11.70;8.95;;;17.70;58.10;;;;;;4840974;29;20029;-62
2021/09/11 03:12:15;;;;;;;12.95;9.05;;;17.70;58.30;;;;;;4840942;29;20037;-61
2021/09/11 03:14:41;;;;;;;12.95;8.80;;;17.70;58.30;;;;;;4840976;29;20026;-62
2021/09/11 03:17:06;;;;;;;12.32;8.90;;;17.60;58.30;;;;;;4840874;29;20026;-62
2021/09/11 03:19:32;;;;;;;14.60;8.73;;;17.60;58.40;;;;;;4840953;29;20022;-63
2021/09/11 03:21:58;;;;;;;12.52;9.00;;;17.60;58.60;;;;;;4841162;29;20087;-62
2021/09/11 03:24:24;;;;;;;13.98;8.82;;;17.60;58.60;;;;;;4840858;29;20026;-62
2021/09/11 03:26:49;;;;;;;11.98;8.57;;;17.60;58.80;;;;;;4840990;29;20481;-62
2021/09/11 03:29:15;;;;;;;12.77;9.25;;;17.60;58.80;;;;;;4840932;29;20061;-63
2021/09/11 03:31:41;;;;;;;11.90;8.80;;;17.60;58.90;;;;;;4840977;29;20053;-62
2021/09/11 03:34:06;;;;;;;14.38;9.63;;;17.60;59.60;;;;;;4843922;29;20037;-63
2021/09/11 03:36:32;;;;;;;12.82;9.27;;;17.50;59.00;;;;;;4844117;29;20040;-62
2021/09/11 03:38:58;;;;;;;13.10;9.30;;;17.50;59.10;;;;;;4844108;29;20086;-62
2021/09/11 03:41:23;;;;;;;12.30;9.77;;;17.50;59.20;;;;;;4844139;29;20105;-63
2021/09/11 03:43:49;;;;;;;12.80;9.15;;;17.50;59.30;;;;;;4832340;29;20022;-63
2021/09/11 03:46:15;;;;;;;13.40;9.88;;;17.50;59.40;;;;;;4863306;29;20500;-62
2021/09/11 03:48:40;;;;;;;13.25;9.43;;;17.50;59.50;;;;;;4862597;29;20113;-62
2021/09/11 03:51:08;;;;;;;14.05;9.80;;;17.50;59.60;;;;;;4845976;29;20045;-62
2021/09/11 03:53:33;;;;;;;13.80;9.50;;;17.50;59.60;;;;;;4862379;29;20078;-63
2021/09/11 03:55:59;;;;;;;12.88;9.23;;;17.50;59.60;;;;;;4867870;29;20503;-62
2021/09/11 03:58:25;;;;;;;12.60;9.30;;;17.50;59.70;;;;;;4880811;29;20108;-62
2021/09/11 04:00:51;;;;;;;15.85;11.57;;;17.50;59.80;;;;;;4880776;29;20388;-62
2021/09/11 04:03:16;;;;;;;15.52;10.77;;;17.50;59.90;;;;;;4880911;29;20036;-62
2021/09/11 04:05:42;;;;;;;15.90;11.57;;;17.50;59.90;;;;;;4880639;29;20061;-63
2021/09/11 04:08:08;;;;;;;13.93;10.55;;;17.50;60.10;;;;;;4880816;29;20111;-62
2021/09/11 04:10:33;;;;;;;13.25;9.52;;;17.50;60.10;;;;;;4880521;29;20037;-62
2021/09/11 04:12:59;;;;;;;15.13;10.43;;;17.50;60.20;;;;;;4880892;29;20021;-62
2021/09/11 04:15:25;;;;;;;14.18;10.57;;;17.50;60.30;;;;;;4880624;29;20443;-63
2021/09/11 04:17:51;;;;;;;13.35;9.65;;;17.50;60.50;;;;;;4868063;29;20021;-64
2021/09/11 04:20:17;;;;;;;12.52;9.43;;;17.50;60.50;;;;;;4845309;29;20036;-62
2021/09/11 04:22:43;;;;;;;13.32;9.85;;;17.60;60.50;;;;;;4845201;29;20477;-62
2021/09/11 04:25:09;;;;;;;13.52;9.95;;;17.60;60.60;;;;;;4861583;29;20037;-62
2021/09/11 04:27:34;;;;;;;13.85;9.75;;;17.60;60.60;;;;;;4861573;29;20049;-63
2021/09/11 04:30:00;;;;;;;13.77;10.02;;;17.70;60.70;;;;;;4861636;29;20044;-63
2021/09/11 04:32:26;;;;;;;16.48;11.43;;;17.70;60.70;;;;;;4861547;29;20036;-62
2021/09/11 04:34:51;;;;;;;14.57;11.13;;;17.70;60.70;;;;;;4861377;29;20487;-63
2021/09/11 04:37:17;;;;;;;14.05;10.75;;;17.80;60.90;;;;;;4861478;29;20029;-63
2021/09/11 04:39:43;;;;;;;14.45;10.45;;;17.80;60.90;;;;;;4861479;29;20382;-64
2021/09/11 04:42:08;;;;;;;14.38;10.68;;;17.90;61.00;;;;;;4861336;29;20056;-63
2021/09/11 04:44:34;;;;;;;14.15;9.90;;;18.00;60.90;;;;;;4861012;29;20060;-63
2021/09/11 04:46:59;;;;;;;12.93;9.25;;;18.00;60.90;;;;;;4861271;29;20045;-62
2021/09/11 04:49:25;;;;;;;13.13;9.90;;;18.10;60.90;;;;;;4861476;29;20053;-62
2021/09/11 04:51:51;;;;;;;12.57;9.93;;;18.20;61.00;;;;;;4861437;29;20029;-62
2021/09/11 04:54:17;;;;;;;13.30;10.18;;;18.20;60.80;;;;;;4861529;29;20033;-63
2021/09/11 04:56:42;;;;;;;13.93;9.82;;;18.30;60.80;;;;;;4872068;29;20029;-63
2021/09/11 04:59:08;;;;;;;14.05;9.80;;;18.40;60.70;;;;;;4879779;29;20025;-63
2021/09/11 05:01:34;;;;;;;14.25;10.57;;;18.50;60.70;;;;;;4879619;29;20021;-62
2021/09/11 05:03:59;;;;;;;14.60;11.02;;;18.50;60.60;;;;;;4879553;29;20077;-63
2021/09/11 05:06:25;;;;;;;12.57;9.82;;;18.50;60.60;;;;;;4879490;29;20029;-62
2021/09/11 05:08:50;;;;;;;13.15;9.73;;;18.60;60.60;;;;;;4879468;29;20104;-63
2021/09/11 05:11:16;;;;;;;12.43;9.35;;;18.60;60.50;;;;;;4875411;29;20108;-63
2021/09/11 05:13:42;;;;;;;12.73;9.48;;;18.70;60.60;;;;;;4878829;29;20516;-62
2021/09/11 05:16:07;;;;;;;12.38;9.55;;;18.70;60.40;;;;;;4879243;29;20496;-63
2021/09/11 05:18:34;;;;;;;12.95;9.43;;;18.80;60.40;;;;;;4879454;29;20408;-63
2021/09/11 05:21:06;;;;;;;13.27;10.05;;;18.80;60.30;;;;;;4878715;29;20033;-62
2021/09/11 05:23:32;;;;;;;;;;;18.90;60.50;;;;;;4879770;29;20033;-63
2021/09/11 05:26:00;;;;;;;12.35;8.80;;;18.80;61.00;;;;;;4879088;29;19908;-63
2021/09/11 05:28:25;;;;;;;12.20;9.00;;;18.80;60.30;;;;;;4870179;29;20114;-63
2021/09/11 05:30:51;;;;;;;12.00;9.23;;;18.90;60.30;;;;;;4860514;29;20033;-62
2021/09/11 05:33:17;;;;;;;12.90;9.40;;;18.90;60.30;;;;;;4860631;29;20469;-62
2021/09/11 05:35:42;;;;;;;13.93;10.02;;;19.00;60.30;;;;;;4863193;29;20032;-63
2021/09/11 05:38:08;;;;;;;12.77;9.85;;;19.00;60.40;;;;;;4860204;29;20022;-62
2021/09/11 05:40:33;;;;;;;13.07;9.82;;;19.00;60.40;;;;;;4860103;29;20040;-63
2021/09/11 05:42:59;;;;;;;11.60;8.80;;;19.00;60.30;;;;;;4860210;29;20129;-64
2021/09/11 05:45:25;;;;;;;11.70;8.98;;;19.10;60.40;;;;;;4860035;29;20132;-63
2021/09/11 05:47:51;;;;;;;12.40;9.25;;;19.10;60.40;;;;;;4877444;29;20048;-64
2021/09/11 05:50:16;;;;;;;11.98;9.30;;;19.20;60.40;;;;;;4862239;29;20749;-63
2021/09/11 05:52:42;;;;;;;12.73;8.85;;;19.20;60.30;;;;;;4878683;29;20098;-62
2021/09/11 05:55:08;;;;;;;13.68;9.10;;;19.30;60.30;;;;;;4870673;29;20129;-63
2021/09/11 05:57:34;;;;;;;12.77;10.27;;;19.30;60.30;;;;;;4877587;29;20025;-62
2021/09/11 06:00:00;;;;;;;14.80;9.95;;;19.40;60.40;;;;;;4878413;29;20429;-64
2021/09/11 06:02:26;;;;;;;13.40;9.73;;;19.50;60.20;;;;;;4877566;29;20029;-62
2021/09/11 06:04:52;;;;;;;13.10;9.90;;;19.60;60.30;;;;;;4878186;29;20033;-63
2021/09/11 06:07:18;;;;;;;12.60;9.43;;;19.70;60.30;;;;;;4878439;29;20077;-62
2021/09/11 06:09:44;;;;;;;11.68;9.38;;;19.80;60.10;;;;;;4878147;29;20032;-62
2021/09/11 06:12:12;;;;;;;11.80;9.45;;;19.80;59.90;;;;;;4878336;29;20115;-63
2021/09/11 06:14:39;;;;;;;12.18;9.60;;;19.90;60.00;;;;;;4878492;29;20429;-62
2021/09/11 06:17:06;;;;;;;13.40;9.98;;;19.90;60.00;;;;;;4878397;29;20052;-62
2021/09/11 06:19:32;;;;;;;12.50;9.10;;;19.90;60.00;;;;;;4878306;29;20057;-64
2021/09/11 06:21:59;;;;;;;13.65;9.40;;;20.00;60.10;;;;;;4861638;29;20116;-63
2021/09/11 06:24:25;;;;;;;14.48;11.23;;;20.00;60.00;;;;;;4878048;29;20033;-62
2021/09/11 06:26:51;;;;;;;12.98;10.35;;;20.00;60.00;;;;;;4878219;29;20112;-62
2021/09/11 06:29:16;;;;;;;12.02;9.90;;;20.10;60.00;;;;;;4877917;29;20128;-62
2021/09/11 06:31:43;;;;;;;12.90;9.73;;;20.10;59.90;;;;;;4877963;29;20059;-62
2021/09/11 06:34:09;;;;;;;12.30;9.35;;;20.10;59.90;;;;;;4877873;29;20044;-62
2021/09/11 06:36:34;;;;;;;12.13;9.13;;;20.30;60.00;;;;;;4878117;29;20029;-63
2021/09/11 06:39:00;;;;;;;12.57;9.07;;;20.40;59.90;;;;;;4878203;29;20100;-62
2021/09/11 06:41:26;;;;;;;12.55;9.32;;;20.40;59.70;;;;;;4863026;29;20100;-63
2021/09/11 06:43:51;;;;;;;13.63;10.32;;;20.50;59.60;;;;;;4859478;29;20036;-63
2021/09/11 06:46:17;;;;;;;12.93;10.30;;;20.50;59.50;;;;;;4872704;29;20029;-62
2021/09/11 06:48:43;;;;;;;13.32;9.63;;;20.60;59.50;;;;;;4878132;29;20501;-63
2021/09/11 06:51:11;;;;;;;13.80;10.20;;;20.60;59.30;;;;;;4861317;29;20037;-63
2021/09/11 06:53:37;;;;;;;11.70;8.88;;;20.70;59.20;;;;;;4865334;29;20055;-62
2021/09/11 06:56:03;;;;;;;11.20;8.35;;;20.70;59.20;;;;;;4865296;29;20043;-62
2021/09/11 06:58:28;;;;;;;9.80;8.00;;;20.90;59.10;;;;;;4878032;29;20033;-63
2021/09/11 07:00:54;;;;;;;11.50;8.45;;;21.00;58.90;;;;;;4877785;29;20081;-63
2021/09/11 07:03:20;;;;;;;10.35;7.68;;;21.10;58.70;;;;;;4862910;29;20030;-63
2021/09/11 07:05:45;;;;;;;9.73;7.30;;;21.20;58.60;;;;;;4842931;29;20136;-62
2021/09/11 07:08:11;;;;;;;9.00;6.70;;;21.40;58.40;;;;;;4862909;29;20100;-63
2021/09/11 07:10:37;;;;;;;10.32;7.05;;;21.50;58.10;;;;;;4862982;29;20039;-62
2021/09/11 07:13:03;;;;;;;8.77;6.78;;;21.70;57.90;;;;;;4862804;29;20098;-63
2021/09/11 07:15:28;;;;;;;9.63;6.78;;;21.90;57.70;;;;;;4862869;29;20032;-62
2021/09/11 07:17:55;;;;;;;9.48;6.47;;;22.10;57.40;;;;;;4862835;29;20045;-61
2021/09/11 07:20:22;;;;;;;8.90;6.50;;;22.20;57.10;;;;;;4862978;29;20032;-62
2021/09/11 07:22:48;;;;;;;9.07;6.80;;;22.50;56.90;;;;;;4862237;29;20029;-62
2021/09/11 07:25:14;;;;;;;8.75;6.80;;;22.80;56.70;;;;;;4842221;29;20040;-62
2021/09/11 07:27:39;;;;;;;8.70;6.72;;;23.00;56.40;;;;;;4862846;29;20049;-63
2021/09/11 07:30:06;;;;;;;9.45;6.55;;;23.20;56.10;;;;;;4862682;29;20042;-64
2021/09/11 07:32:32;;;;;;;10.18;6.40;;;23.40;55.70;;;;;;4862603;29;20500;-63
2021/09/11 07:34:57;;;;;;;8.40;6.10;;;23.60;55.40;;;;;;4862768;29;20030;-65
2021/09/11 07:37:23;;;;;;;8.27;5.90;;;23.80;55.20;;;;;;4846289;29;20037;-63
2021/09/11 07:39:49;;;;;;;7.88;6.07;;;24.00;54.90;;;;;;4862693;29;20025;-64
2021/09/11 07:42:15;;;;;;;9.52;6.30;;;24.10;54.60;;;;;;4862448;29;20032;-63
2021/09/11 07:44:41;;;;;;;8.55;6.00;;;24.30;54.40;;;;;;4879279;29;20021;-62
2021/09/11 07:47:08;;;;;;;9.65;6.40;;;24.50;54.10;;;;;;4881220;29;20029;-66
2021/09/11 07:49:33;;;;;;;8.73;6.50;;;24.70;53.80;;;;;;4880983;29;20484;-63
2021/09/11 07:51:59;;;;;;;9.88;6.53;;;24.90;53.50;;;;;;4880991;29;20037;-63
2021/09/11 07:54:25;;;;;;;8.50;5.97;;;25.10;53.20;;;;;;4869485;29;20040;-63
2021/09/11 07:56:50;;;;;;;7.80;5.40;;;25.30;53.00;;;;;;4874420;29;20106;-62
2021/09/11 07:59:16;;;;;;;7.78;5.82;;;25.40;52.70;;;;;;4880873;29;20029;-62
2021/09/11 08:01:42;;;;;;;7.30;5.20;;;25.60;52.60;;;;;;4876307;29;20100;-62
2021/09/11 08:04:07;;;;;;;7.38;5.10;;;25.70;52.30;;;;;;4862160;29;20112;-62
2021/09/11 08:06:33;;;;;;;8.20;5.35;;;25.90;52.20;;;;;;4862001;29;20034;-62
2021/09/11 08:08:59;;;;;;;7.40;5.25;;;26.10;52.00;;;;;;4861826;29;20108;-63
2021/09/11 08:11:24;;;;;;;7.32;4.97;;;26.20;51.70;;;;;;4866984;29;20029;-63
2021/09/11 08:13:52;;;;;;;7.45;5.50;;;26.40;51.50;;;;;;4880551;29;20047;-64
2021/09/11 08:16:18;;;;;;;7.53;5.13;;;26.70;51.30;;;;;;4880620;29;20414;-61
2021/09/11 08:18:43;;;;;;;7.28;5.20;;;26.80;50.90;;;;;;4876030;29;20104;-63
2021/09/11 08:21:09;;;;;;;7.40;5.30;;;27.00;50.60;;;;;;4868461;29;20041;-63
2021/09/11 08:23:35;;;;;;;7.30;5.13;;;27.30;50.40;;;;;;4862280;29;20033;-62
2021/09/11 08:26:02;;;;;;;7.07;4.70;;;27.40;50.10;;;;;;4861850;29;20092;-62
2021/09/11 08:28:28;;;;;;;6.90;4.82;;;27.70;49.90;;;;;;4859631;29;20058;-65
2021/09/11 08:30:53;;;;;;;7.10;4.68;;;27.90;49.90;;;;;;4857841;29;20138;-62
2021/09/11 08:33:19;;;;;;;6.53;4.70;;;28.00;49.30;;;;;;4860174;29;20037;-63
2021/09/11 08:35:45;;;;;;;6.40;4.57;;;28.20;49.10;;;;;;4860077;29;20037;-62
2021/09/11 08:38:11;;;;;;;6.63;4.72;;;28.30;48.80;;;;;;4854229;29;20110;-61
2021/09/11 08:40:36;;;;;;;7.15;4.65;;;28.50;48.40;;;;;;4848009;29;20034;-62
2021/09/11 08:43:02;;;;;;;6.57;4.45;;;28.60;48.20;;;;;;4873244;29;20032;-62
2021/09/11 08:45:28;;;;;;;6.80;4.40;;;28.70;48.10;;;;;;4877254;29;20033;-64
2021/09/11 08:47:54;;;;;;;6.80;4.78;;;28.90;48.00;;;;;;4860006;29;20393;-63
2021/09/11 08:50:21;;;;;;;6.50;4.50;;;29.10;47.60;;;;;;4846656;29;20045;-63
2021/09/11 08:52:49;;;;;;;6.53;4.65;;;29.20;47.30;;;;;;4856826;29;20033;-63
2021/09/11 08:55:16;;;;;;;6.53;4.63;;;29.40;47.10;;;;;;4860925;29;20112;-62
2021/09/11 08:58:02;;;;;;;6.85;5.00;;;29.50;46.80;;;;;;4860703;29;20077;-63
2021/09/11 09:00:48;;;;;;;6.65;4.70;;;29.70;46.10;;;;;;4860455;29;20033;-63
2021/09/11 09:03:37;;;;;;;6.50;4.70;;;29.80;45.80;;;;;;4844121;29;20499;-63
2021/09/11 09:06:23;;;;;;;6.88;4.57;;;30.00;46.10;;;;;;4860561;29;20396;-62
2021/09/11 09:08:51;;;;;;;7.18;5.28;;;30.20;45.60;;;;;;4860767;29;20040;-61
2021/09/11 09:11:19;;;;;;;6.65;4.60;;;30.30;45.90;;;;;;4859622;29;20017;-62
2021/09/11 09:13:49;;;;;;;6.68;5.07;;;30.30;45.70;;;;;;4860952;29;20052;-63
2021/09/11 09:16:16;;;;;;;6.68;4.60;;;30.40;45.50;;;;;;4860142;29;20055;-63
2021/09/11 09:18:41;;;;;;;6.55;4.60;;;30.50;45.40;;;;;;4860567;29;20042;-62
2021/09/11 09:21:25;;;;;;;6.72;4.57;;;30.60;45.30;;;;;;4860286;29;20032;-61
2021/09/11 09:24:05;;;;;;;6.70;4.50;;;30.60;44.70;;;;;;4859713;29;20037;-61
2021/09/11 09:26:58;;;;;;;6.88;4.45;;;30.80;44.70;;;;;;4843850;29;20038;-62
2021/09/11 09:29:24;;;;;;;7.38;5.10;;;31.00;43.90;;;;;;4855731;29;20057;-62
2021/09/11 09:31:56;;;;;;;6.22;4.70;;;31.20;44.40;;;;;;4859926;29;20037;-61
2021/09/11 09:34:41;;;;;;;6.63;4.47;;;31.40;44.10;;;;;;4859444;29;20422;-61
2021/09/11 09:37:09;;;;;;;6.70;4.93;;;31.60;43.00;;;;;;4851202;29;20034;-60
2021/09/11 09:39:45;;;;;;;6.53;4.70;;;31.80;44.10;;;;;;4848297;29;20029;-61
2021/09/11 09:42:13;;;;;;;6.85;4.65;;;31.90;42.90;;;;;;4854084;29;20025;-60
2021/09/11 09:44:50;;;;;;;7.75;4.38;;;32.00;42.70;;;;;;4859380;29;20045;-61
2021/09/11 09:47:18;;;;;;;6.47;4.57;;;32.10;42.40;;;;;;4859686;29;20036;-63
2021/09/11 09:50:04;;;;;;;6.07;4.22;;;32.30;42.40;;;;;;4859418;29;20040;-62
2021/09/11 09:52:37;;;;;;;7.28;4.80;;;32.50;41.40;;;;;;5062885;28;20438;-60
2021/09/11 09:55:04;;;;;;;7.22;4.47;;;32.70;41.90;;;;;;5059136;28;20044;-60
2021/09/11 09:57:30;;;;;;;5.82;4.30;;;33.00;41.60;;;;;;5055918;28;20022;-61
2021/09/11 09:59:58;;;;;;;6.72;4.75;;;33.20;41.30;;;;;;5052622;28;20021;-61
2021/09/11 10:02:24;;;;;;;6.70;4.88;;;33.40;40.90;;;;;;5048957;28;20033;-60
2021/09/11 10:04:50;;;;;;;7.47;4.95;;;33.60;40.70;;;;;;5049388;28;20029;-61
2021/09/11 10:07:21;;;;;;;7.20;5.22;;;33.60;40.50;;;;;;5050462;28;20029;-60
2021/09/11 10:09:50;;;;;;;7.32;5.85;;;33.80;40.40;;;;;;5037859;28;20490;-61
2021/09/11 10:12:29;;;;;;;7.50;5.57;;;33.90;40.20;;;;;;5048753;28;20037;-60
2021/09/11 10:15:28;;;;;;;7.65;6.35;;;34.20;39.60;;;;;;5034440;28;20084;-61
2021/09/11 10:17:55;;;;;;;8.15;6.63;;;34.50;39.30;;;;;;5044365;28;20021;-61
2021/09/11 10:20:22;;;;;;;8.15;6.95;;;34.70;39.60;;;;;;5060277;28;20039;-61
2021/09/11 10:23:08;;;;;;;8.15;6.93;;;34.90;39.30;;;;;;5067316;28;20028;-60
2021/09/11 10:25:54;;;;;;;7.55;6.53;;;35.10;38.50;;;;;;5062001;28;20033;-60
2021/09/11 10:28:26;;;;;;;8.55;6.70;;;35.50;38.40;;;;;;5058331;28;20400;-60
2021/09/11 10:31:02;;;;;;;7.60;6.00;;;35.70;38.90;;;;;;5048389;28;20029;-60
2021/09/11 10:33:46;;;;;;;7.65;5.57;;;35.90;38.20;;;;;;5048474;28;20023;-60
2021/09/11 10:36:14;;;;;;;7.30;5.10;;;36.10;37.10;;;;;;5048222;28;20064;-60
2021/09/11 10:38:42;;;;;;;6.10;4.78;;;36.20;37.70;;;;;;5047973;28;20028;-60
2021/09/11 10:41:14;;;;;;;6.53;4.55;;;36.30;37.50;;;;;;5048301;28;20803;-61
2021/09/11 10:44:06;;;;;;;6.75;4.80;;;36.40;37.10;;;;;;5048593;28;20029;-60
2021/09/11 10:46:51;;;;;;;6.45;4.68;;;36.60;36.00;;;;;;5045182;28;20033;-61
2021/09/11 10:49:31;;;;;;;6.32;4.88;;;36.70;35.90;;;;;;5048011;28;20040;-61
2021/09/11 10:52:11;;;;;;;6.75;4.53;;;36.90;36.20;;;;;;5047765;28;20056;-62
2021/09/11 10:54:44;;;;;;;5.53;3.87;;;37.20;35.70;;;;;;5048091;28;20026;-61
2021/09/11 10:57:13;;;;;;;6.10;4.50;;;37.40;36.70;;;;;;5052525;28;20032;-60
2021/09/11 10:59:46;;;;;;;5.88;4.43;;;37.50;36.50;;;;;;5067956;28;20024;-60
2021/09/11 11:02:30;;;;;;;6.78;4.30;;;37.60;36.40;;;;;;5062725;28;20025;-61
2021/09/11 11:04:57;;;;;;;5.85;4.10;;;37.80;35.70;;;;;;5031646;28;20129;-61
2021/09/11 11:07:28;;;;;;;6.70;4.40;;;38.10;36.50;;;;;;5034711;28;20029;-61
2021/09/11 11:09:55;;;;;;;5.63;4.25;;;38.50;36.30;;;;;;5034713;28;20104;-61
2021/09/11 11:12:47;;;;;;;5.50;4.03;;;38.80;36.00;;;;;;5034508;28;20096;-61
2021/09/11 11:15:27;;;;;;;6.57;4.50;;;39.10;35.90;;;;;;5032460;28;20029;-62
2021/09/11 11:17:53;;;;;;;5.85;4.47;;;39.70;34.80;;;;;;5032988;28;20028;-61
2021/09/11 11:20:28;;;;;;;5.50;3.90;;;40.00;35.40;;;;;;5029291;28;20439;-62
2021/09/11 11:22:57;;;;;;;6.00;4.40;;;40.30;34.90;;;;;;5036390;28;20087;-61
2021/09/11 11:25:29;;;;;;;5.40;4.07;;;40.60;34.90;;;;;;5036569;28;20083;-61
2021/09/11 11:27:56;;;;;;;6.10;4.38;;;40.90;34.40;;;;;;5040721;28;20032;-62
2021/09/11 11:30:22;;;;;;;5.68;4.32;;;41.10;34.40;;;;;;5037626;28;20378;-61
2021/09/11 11:32:48;;;;;;;5.75;4.30;;;41.50;34.20;;;;;;5052652;28;20025;-61
2021/09/11 11:35:14;;;;;;;6.15;4.30;;;41.80;33.90;;;;;;5037713;28;20029;-60
2021/09/11 11:37:41;;;;;;;6.90;4.70;;;42.10;33.80;;;;;;5030724;28;20048;-63
2021/09/11 11:40:13;;;;;;;10.25;6.00;;;42.50;33.50;;;;;;5043908;28;20355;-62
2021/09/11 11:42:39;;;;;;;7.40;5.13;;;42.80;33.40;;;;;;5033893;28;20503;-63
2021/09/11 11:45:07;;;;;;;8.70;5.90;;;43.00;33.50;;;;;;5033860;28;20032;-61
2021/09/11 11:48:14;;;;;;;6.45;4.63;;;43.20;33.40;;;;;;5033418;28;20108;-61
2021/09/11 11:50:42;;;;;;;7.13;4.90;;;43.30;30.70;;;;;;5033152;28;20128;-65
2021/09/11 11:53:18;;;;;;;5.97;4.60;;;43.50;32.80;;;;;;5033641;28;20101;-61
2021/09/11 11:55:49;;;;;;;5.60;4.22;;;43.80;31.10;;;;;;5033674;28;20030;-60
2021/09/11 11:58:16;;;;;;;;;;;44.10;32.40;;;;;;5033864;28;20036;-60
2021/09/11 12:00:48;;;;;;;5.53;3.90;;;44.10;29.70;;;;;;5033420;28;19905;-61
2021/09/11 12:03:33;;;;;;;5.60;4.07;;;44.40;32.20;;;;;;5033553;28;20109;-62
2021/09/11 12:05:59;;;;;;;6.45;4.03;;;44.60;30.40;;;;;;5031276;28;20431;-61
2021/09/11 12:08:26;;;;;;;5.32;4.00;;;44.90;31.60;;;;;;5040550;28;20510;-62
2021/09/11 12:10:55;;;;;;;6.20;4.05;;;45.10;31.40;;;;;;5053421;28;20037;-66
2021/09/11 12:13:22;;;;;;;5.88;4.20;;;45.20;31.20;;;;;;5053089;28;20025;-61
2021/09/11 12:15:49;;;;;;;6.07;4.50;;;45.40;30.90;;;;;;5052197;28;20108;-61
2021/09/11 12:18:17;;;;;;;6.57;4.10;;;45.50;30.60;;;;;;5053136;28;20543;-61
2021/09/11 12:20:46;;;;;;;6.10;4.18;;;45.60;30.50;;;;;;5052804;28;20108;-61
2021/09/11 12:23:11;;;;;;;6.55;4.32;;;45.70;30.40;;;;;;5052711;28;20104;-61
2021/09/11 12:26:10;;;;;;;6.13;4.05;;;45.70;30.30;;;;;;5041699;28;20448;-61
2021/09/11 12:28:48;;;;;;;5.63;3.90;;;45.80;29.40;;;;;;5033177;28;20026;-62
2021/09/11 12:31:20;;;;;;;6.75;4.68;;;45.90;30.10;;;;;;5032850;28;20021;-61
2021/09/11 12:33:50;;;;;;;6.25;4.20;;;45.90;29.70;;;;;;5032823;28;20028;-61
2021/09/11 12:36:30;;;;;;;6.38;4.22;;;46.00;30.00;;;;;;5033073;28;20044;-61
2021/09/11 12:39:22;;;;;;;6.85;4.50;;;46.10;29.40;;;;;;5032717;28;20017;-61
2021/09/11 12:41:49;;;;;;;6.28;4.30;;;46.20;29.80;;;;;;5032831;28;20033;-61
2021/09/11 12:44:16;;;;;;;6.07;4.20;;;46.20;29.80;;;;;;5032671;28;20025;-61
2021/09/11 12:46:56;;;;;;;5.85;4.25;;;46.30;29.70;;;;;;5032777;28;20116;-63